createdAt,value
2023-02-23T00:00:28.188Z,8.59
2023-02-23T00:03:29.651Z,8.61
2023-02-23T00:06:33.196Z,8.60
2023-02-23T00:09:37.918Z,8.58
2023-02-23T00:12:40.894Z,8.50
2023-02-23T00:15:42.342Z,8.47
2023-02-23T00:18:50.911Z,8.45
2023-02-23T00:21:53.791Z,8.42
2023-02-23T00:24:57.459Z,8.43
2023-02-23T00:27:59.216Z,8.39
2023-02-23T00:31:04.114Z,8.41
2023-02-23T00:34:06.235Z,8.41
2023-02-23T00:37:08.537Z,8.44
2023-02-23T00:40:14.742Z,8.41
2023-02-23T00:43:18.655Z,8.38
2023-02-23T00:46:24.954Z,8.41
2023-02-23T00:49:26.906Z,8.38
2023-02-23T00:52:29.203Z,8.32
2023-02-23T00:55:30.817Z,8.24
2023-02-23T00:58:32.326Z,8.21
2023-02-23T01:01:34.154Z,8.30
2023-02-23T01:04:35.672Z,8.35
2023-02-23T01:07:38.046Z,8.34
2023-02-23T01:10:41.767Z,8.41
2023-02-23T01:13:47.186Z,8.37
2023-02-23T01:16:48.941Z,8.40
2023-02-23T01:19:50.482Z,8.43
2023-02-23T01:22:52.093Z,8.46
2023-02-23T01:25:53.521Z,8.46
2023-02-23T01:28:57.932Z,8.44
2023-02-23T01:31:59.867Z,8.42
2023-02-23T01:35:04.384Z,8.38
2023-02-23T01:38:06.030Z,8.38
2023-02-23T01:41:09.124Z,8.36
2023-02-23T01:44:13.691Z,8.35
2023-02-23T01:47:16.998Z,8.34
2023-02-23T01:50:19.806Z,8.36
2023-02-23T01:53:22.273Z,8.39
2023-02-23T01:56:29.440Z,8.38
2023-02-23T01:59:39.232Z,8.28
2023-02-23T02:02:42.580Z,8.32
2023-02-23T02:05:45.546Z,8.32
2023-02-23T02:08:54.540Z,8.33
2023-02-23T02:11:56.011Z,8.34
2023-02-23T02:15:00.173Z,8.25
2023-02-23T02:18:23.308Z,8.23
2023-02-23T02:21:41.900Z,8.31
2023-02-23T02:25:01.713Z,8.32
2023-02-23T02:28:34.194Z,8.28
2023-02-23T02:31:38.535Z,8.27
2023-02-23T02:34:55.418Z,8.28
2023-02-23T02:38:16.502Z,8.27
2023-02-23T02:41:28.594Z,8.26
2023-02-23T02:44:49.617Z,8.21
2023-02-23T02:47:58.604Z,8.22
2023-02-23T02:51:10.289Z,8.24
2023-02-23T02:54:41.055Z,8.24
2023-02-23T02:57:46.731Z,8.22
2023-02-23T03:01:09.111Z,8.23
2023-02-23T03:04:41.993Z,8.19
2023-02-23T03:08:18.768Z,8.15
2023-02-23T03:11:39.108Z,8.18
2023-02-23T03:15:27.852Z,8.20
2023-02-23T03:19:17.066Z,8.12
2023-02-23T03:22:42.510Z,8.11
2023-02-23T03:26:24.697Z,8.13
2023-02-23T03:29:59.640Z,8.13
2023-02-23T03:33:29.855Z,8.04
2023-02-23T03:36:54.453Z,8.07
2023-02-23T03:40:22.803Z,8.10
2023-02-23T03:43:53.267Z,7.99
2023-02-23T03:47:15.826Z,8.04
2023-02-23T03:50:53.184Z,7.97
2023-02-23T03:54:22.787Z,7.96
2023-02-23T03:57:45.509Z,7.97
2023-02-23T04:01:09.793Z,8.05
2023-02-23T04:04:30.716Z,8.05
2023-02-23T04:07:53.562Z,8.04
2023-02-23T04:11:21.652Z,7.98
2023-02-23T04:14:31.187Z,8.01
2023-02-23T04:17:33.556Z,8.01
2023-02-23T04:20:35.319Z,7.97
2023-02-23T04:23:40.666Z,7.95
2023-02-23T04:26:42.377Z,7.85
2023-02-23T04:29:44.136Z,7.81
2023-02-23T04:32:46.028Z,7.79
2023-02-23T04:35:48.561Z,7.73
2023-02-23T04:38:50.068Z,7.64
2023-02-23T04:41:51.516Z,7.64
2023-02-23T04:44:53.318Z,7.63
2023-02-23T04:47:54.934Z,7.59
2023-02-23T04:50:56.439Z,7.57
2023-02-23T04:53:58.377Z,7.65
2023-02-23T04:56:59.807Z,7.68
2023-02-23T05:00:02.131Z,7.60
2023-02-23T05:03:03.924Z,7.62
2023-02-23T05:06:05.646Z,7.69
2023-02-23T05:09:07.093Z,7.72
2023-02-23T05:12:08.773Z,7.75
2023-02-23T05:15:11.092Z,7.75
2023-02-23T05:18:12.717Z,7.75
2023-02-23T05:21:14.290Z,7.74
2023-02-23T05:24:17.365Z,7.71
2023-02-23T05:27:19.104Z,7.71
2023-02-23T05:30:20.606Z,7.72
2023-02-23T05:33:22.117Z,7.75
2023-02-23T05:36:23.601Z,7.79
2023-02-23T05:39:25.085Z,7.82
2023-02-23T05:42:26.934Z,7.84
2023-02-23T05:45:28.448Z,7.89
2023-02-23T05:48:30.374Z,7.93
2023-02-23T05:51:34.282Z,7.96
2023-02-23T05:54:35.762Z,7.93
2023-02-23T05:57:37.781Z,7.89
2023-02-23T06:00:39.209Z,7.82
2023-02-23T06:03:40.669Z,7.83
2023-02-23T06:06:42.172Z,7.88
2023-02-23T06:09:44.645Z,7.89
2023-02-23T06:12:46.606Z,7.94
2023-02-23T06:15:49.492Z,7.95
2023-02-23T06:18:51.099Z,7.93
2023-02-23T06:21:55.452Z,7.94
2023-02-23T06:24:56.946Z,7.94
2023-02-23T06:27:58.400Z,7.92
2023-02-23T06:31:00.030Z,7.89
2023-02-23T06:34:01.514Z,7.91
2023-02-23T06:37:03.141Z,8.00
2023-02-23T06:40:05.914Z,8.05
2023-02-23T06:43:07.485Z,8.09
2023-02-23T06:46:09.046Z,8.06
2023-02-23T06:49:12.037Z,8.04
2023-02-23T06:52:14.239Z,8.14
2023-02-23T06:55:15.923Z,8.21
2023-02-23T06:58:17.748Z,8.22
2023-02-23T07:01:19.676Z,8.21
2023-02-23T07:04:21.453Z,8.20
2023-02-23T07:07:23.557Z,8.25
2023-02-23T07:10:25.060Z,8.32
2023-02-23T07:13:26.598Z,8.36
2023-02-23T07:16:29.127Z,8.36
2023-02-23T07:19:32.189Z,8.51
2023-02-23T07:22:34.222Z,8.62
2023-02-23T07:25:36.391Z,8.69
2023-02-23T07:28:38.230Z,8.71
2023-02-23T07:31:40.416Z,8.80
2023-02-23T07:34:42.007Z,8.90
2023-02-23T07:37:43.641Z,8.98
2023-02-23T07:40:45.276Z,8.98
2023-02-23T07:43:46.728Z,9.01
2023-02-23T07:46:48.463Z,9.04
2023-02-23T07:49:50.129Z,9.13
2023-02-23T07:52:52.290Z,9.21
2023-02-23T07:55:58.377Z,9.31
2023-02-23T07:58:59.866Z,9.42
2023-02-23T08:02:01.417Z,9.50
2023-02-23T08:05:03.817Z,9.58
2023-02-23T08:08:05.428Z,9.72
2023-02-23T08:11:06.930Z,9.86
2023-02-23T08:14:10.432Z,9.98
2023-02-23T08:17:12.590Z,10.00
2023-02-23T08:20:14.214Z,10.07
2023-02-23T08:23:18.068Z,10.11
2023-02-23T08:26:19.591Z,10.17
2023-02-23T08:29:21.337Z,10.19
2023-02-23T08:32:22.827Z,10.24
2023-02-23T08:35:25.488Z,10.36
2023-02-23T08:38:27.947Z,10.42
2023-02-23T08:41:29.556Z,10.47
2023-02-23T08:44:31.070Z,10.44
2023-02-23T08:47:34.255Z,10.39
2023-02-23T08:50:35.915Z,10.33
2023-02-23T08:53:37.446Z,10.34
2023-02-23T08:56:39.060Z,10.44
2023-02-23T08:59:41.239Z,10.69
2023-02-23T09:02:45.408Z,10.86
2023-02-23T09:05:47.115Z,11.06
2023-02-23T09:08:48.725Z,11.36
2023-02-23T09:11:50.209Z,11.63
2023-02-23T09:14:53.688Z,11.93
2023-02-23T09:17:55.167Z,12.15
2023-02-23T09:20:56.855Z,12.09
2023-02-23T09:23:58.535Z,12.17
2023-02-23T09:26:59.993Z,12.28
2023-02-23T09:30:01.798Z,12.23
2023-02-23T09:33:03.855Z,12.25
2023-02-23T09:36:12.832Z,12.25
2023-02-23T09:39:14.311Z,12.29
2023-02-23T09:42:38.312Z,12.27
2023-02-23T09:45:51.475Z,12.28
2023-02-23T09:48:56.675Z,12.34
2023-02-23T09:52:00.649Z,12.33
2023-02-23T09:55:02.420Z,12.19
2023-02-23T09:58:18.263Z,12.19
2023-02-23T10:01:41.379Z,12.23
2023-02-23T10:04:49.144Z,12.25
2023-02-23T10:08:02.494Z,12.43
2023-02-23T10:11:23.334Z,12.60
2023-02-23T10:14:36.603Z,12.66
2023-02-23T10:18:09.064Z,12.85
2023-02-23T10:21:36.055Z,12.97
2023-02-23T10:24:42.313Z,13.01
2023-02-23T10:27:49.238Z,12.98
2023-02-23T10:30:54.842Z,12.99
2023-02-23T10:34:00.043Z,13.27
2023-02-23T10:37:04.538Z,13.27
2023-02-23T10:40:07.024Z,13.35
2023-02-23T10:43:12.874Z,13.56
2023-02-23T10:46:22.381Z,13.77
2023-02-23T10:49:30.426Z,13.68
2023-02-23T10:52:46.806Z,13.37
2023-02-23T10:56:01.390Z,13.30
2023-02-23T10:59:02.909Z,13.34
2023-02-23T11:02:23.530Z,13.40
2023-02-23T11:05:34.099Z,13.48
2023-02-23T11:08:40.350Z,13.64
2023-02-23T11:11:59.581Z,13.89
2023-02-23T11:15:22.143Z,13.75
2023-02-23T11:18:26.114Z,13.80
2023-02-23T11:21:29.607Z,13.81
2023-02-23T11:24:36.758Z,13.85
2023-02-23T11:27:38.204Z,13.89
2023-02-23T11:30:43.044Z,13.77
2023-02-23T11:33:47.129Z,13.61
2023-02-23T11:36:58.120Z,13.78
2023-02-23T11:40:02.334Z,13.91
2023-02-23T11:43:16.511Z,13.90
2023-02-23T11:46:22.499Z,13.65
2023-02-23T11:49:31.891Z,13.74
2023-02-23T11:52:36.387Z,13.82
2023-02-23T11:55:38.433Z,13.80
2023-02-23T11:58:45.781Z,13.77
2023-02-23T12:01:52.502Z,13.60
2023-02-23T12:05:06.505Z,13.54
2023-02-23T12:08:18.443Z,13.63
2023-02-23T12:11:25.285Z,13.81
2023-02-23T12:14:37.815Z,13.92
2023-02-23T12:17:48.024Z,14.07
2023-02-23T12:20:54.223Z,14.22
2023-02-23T12:24:14.573Z,14.24
2023-02-23T12:27:29.649Z,14.52
2023-02-23T12:30:39.960Z,14.93
2023-02-23T12:33:48.329Z,15.24
2023-02-23T12:37:01.655Z,15.00
2023-02-23T12:40:16.101Z,14.98
2023-02-23T12:43:26.927Z,15.02
2023-02-23T12:46:40.516Z,15.22
2023-02-23T12:49:51.129Z,15.05
2023-02-23T12:53:12.368Z,14.83
2023-02-23T12:56:24.642Z,14.62
2023-02-23T12:59:46.444Z,14.53
2023-02-23T13:03:09.930Z,14.29
2023-02-23T13:06:24.957Z,14.16
2023-02-23T13:09:47.947Z,14.02
2023-02-23T13:13:02.079Z,14.04
2023-02-23T13:16:30.093Z,13.96
2023-02-23T13:19:46.835Z,14.15
2023-02-23T13:22:57.340Z,14.36
2023-02-23T13:26:46.351Z,14.84
2023-02-23T13:29:50.557Z,15.11
2023-02-23T13:32:52.657Z,15.14
2023-02-23T13:35:55.216Z,15.05
2023-02-23T13:39:33.978Z,15.03
2023-02-23T13:42:44.507Z,15.01
2023-02-23T13:45:55.242Z,14.99
2023-02-23T13:49:02.388Z,14.89
2023-02-23T13:52:23.538Z,14.97
2023-02-23T13:55:34.660Z,14.73
2023-02-23T13:58:48.653Z,14.87
2023-02-23T14:01:53.244Z,14.86
2023-02-23T14:05:02.499Z,14.67
2023-02-23T14:08:06.141Z,14.62
2023-02-23T14:11:07.740Z,14.67
2023-02-23T14:14:13.391Z,14.77
2023-02-23T14:17:14.788Z,14.91
2023-02-23T14:20:29.912Z,15.39
2023-02-23T14:23:42.215Z,15.33
2023-02-23T14:26:46.697Z,15.58
2023-02-23T14:30:15.116Z,15.56
2023-02-23T14:33:48.459Z,15.37
2023-02-23T14:36:53.107Z,15.24
2023-02-23T14:39:56.841Z,15.27
2023-02-23T14:43:00.868Z,15.13
2023-02-23T14:46:05.978Z,15.27
2023-02-23T14:49:14.458Z,15.59
2023-02-23T14:52:29.151Z,15.79
2023-02-23T14:55:35.249Z,15.29
2023-02-23T14:58:36.865Z,15.09
2023-02-23T15:01:39.699Z,14.96
2023-02-23T15:04:41.981Z,14.92
2023-02-23T15:07:45.350Z,14.82
2023-02-23T15:10:50.649Z,14.68
2023-02-23T15:13:52.419Z,14.53
2023-02-23T15:16:56.358Z,14.36
2023-02-23T15:20:14.878Z,14.47
2023-02-23T15:23:19.365Z,14.59
2023-02-23T15:26:31.737Z,14.76
2023-02-23T15:29:33.670Z,15.02
2023-02-23T15:32:37.865Z,15.07
2023-02-23T15:35:47.379Z,15.04
2023-02-23T15:38:55.121Z,14.97
2023-02-23T15:41:56.717Z,14.90
2023-02-23T15:45:01.704Z,14.89
2023-02-23T15:48:06.410Z,14.92
2023-02-23T15:51:17.231Z,14.78
2023-02-23T15:54:32.419Z,14.47
2023-02-23T15:57:47.247Z,14.23
2023-02-23T16:01:06.162Z,14.26
2023-02-23T16:04:18.972Z,14.29
2023-02-23T16:07:21.970Z,14.25
2023-02-23T16:10:26.762Z,13.98
2023-02-23T16:13:28.631Z,13.70
2023-02-23T16:16:30.449Z,13.32
2023-02-23T16:19:32.462Z,13.09
2023-02-23T16:22:34.334Z,12.90
2023-02-23T16:25:35.803Z,12.73
2023-02-23T16:28:42.690Z,12.68
2023-02-23T16:31:50.062Z,12.57
2023-02-23T16:34:59.765Z,12.45
2023-02-23T16:38:03.360Z,12.22
2023-02-23T16:41:07.206Z,11.99
2023-02-23T16:44:18.037Z,11.79
2023-02-23T16:47:22.584Z,11.71
2023-02-23T16:50:25.161Z,11.51
2023-02-23T16:53:26.723Z,11.37
2023-02-23T16:56:30.702Z,11.18
2023-02-23T16:59:32.510Z,11.07
2023-02-23T17:02:35.042Z,10.95
2023-02-23T17:05:36.631Z,10.76
2023-02-23T17:08:43.420Z,10.61
2023-02-23T17:11:48.250Z,10.42
2023-02-23T17:14:50.036Z,10.30
2023-02-23T17:17:53.245Z,10.28
2023-02-23T17:20:56.656Z,10.20
2023-02-23T17:24:02.711Z,9.92
2023-02-23T17:27:04.352Z,9.71
2023-02-23T17:30:07.151Z,9.49
2023-02-23T17:33:09.719Z,9.35
2023-02-23T17:36:14.865Z,9.23
2023-02-23T17:39:16.802Z,9.07
2023-02-23T17:42:18.776Z,8.91
2023-02-23T17:45:20.229Z,8.74
2023-02-23T17:48:23.152Z,8.59
2023-02-23T17:51:24.684Z,8.51
2023-02-23T17:54:27.757Z,8.47
2023-02-23T17:57:30.726Z,8.35
2023-02-23T18:00:37.665Z,8.25
2023-02-23T18:03:39.604Z,8.18
2023-02-23T18:06:41.508Z,8.22
2023-02-23T18:09:43.390Z,8.18
2023-02-23T18:12:45.014Z,8.07
2023-02-23T18:15:51.438Z,8.00
2023-02-23T18:18:53.676Z,8.07
2023-02-23T18:21:56.107Z,8.18
2023-02-23T18:24:58.229Z,8.20
2023-02-23T18:28:00.127Z,8.13
2023-02-23T18:31:02.185Z,8.03
2023-02-23T18:34:03.701Z,7.98
2023-02-23T18:37:05.663Z,7.98
2023-02-23T18:40:07.636Z,7.88
2023-02-23T18:43:09.568Z,7.72
2023-02-23T18:46:12.593Z,7.59
2023-02-23T18:49:16.822Z,7.45
2023-02-23T18:52:18.313Z,7.38
2023-02-23T18:55:22.093Z,7.25
2023-02-23T18:58:24.208Z,7.31
2023-02-23T19:01:28.772Z,7.39
2023-02-23T19:04:30.256Z,7.44
2023-02-23T19:07:32.399Z,7.42
2023-02-23T19:10:33.956Z,7.36
2023-02-23T19:13:38.057Z,7.27
2023-02-23T19:16:40.997Z,7.22
2023-02-23T19:19:42.512Z,7.05
2023-02-23T19:22:44.160Z,6.96
2023-02-23T19:25:49.779Z,6.89
2023-02-23T19:28:51.257Z,6.93
2023-02-23T19:31:52.842Z,6.82
2023-02-23T19:34:54.416Z,6.74
2023-02-23T19:37:57.491Z,6.67
2023-02-23T19:40:59.071Z,6.50
2023-02-23T19:44:00.809Z,6.47
2023-02-23T19:47:02.469Z,6.46
2023-02-23T19:50:04.216Z,6.44
2023-02-23T19:53:05.718Z,6.44
2023-02-23T19:56:10.851Z,6.31
2023-02-23T19:59:12.655Z,6.17
2023-02-23T20:02:14.202Z,6.17
2023-02-23T20:05:16.790Z,6.15
2023-02-23T20:08:19.317Z,6.17
2023-02-23T20:11:22.353Z,6.15
2023-02-23T20:14:24.957Z,6.17
2023-02-23T20:17:26.508Z,6.08
2023-02-23T20:20:29.053Z,6.06
2023-02-23T20:23:30.548Z,5.93
2023-02-23T20:26:35.440Z,5.83
2023-02-23T20:29:37.078Z,5.73
2023-02-23T20:32:38.873Z,5.57
2023-02-23T20:35:41.337Z,5.50
2023-02-23T20:38:43.047Z,5.47
2023-02-23T20:41:45.560Z,5.42
2023-02-23T20:44:47.034Z,5.39
2023-02-23T20:47:53.149Z,5.38
2023-02-23T20:50:55.327Z,5.38
2023-02-23T20:53:56.955Z,5.27
2023-02-23T20:57:07.503Z,5.31
2023-02-23T21:00:13.533Z,5.23
2023-02-23T21:03:14.972Z,5.25
2023-02-23T21:06:16.809Z,5.22
2023-02-23T21:09:18.340Z,5.12
2023-02-23T21:12:20.466Z,5.07
2023-02-23T21:15:22.011Z,5.05
2023-02-23T21:18:23.657Z,5.01
2023-02-23T21:21:26.264Z,5.02
2023-02-23T21:24:28.848Z,4.99
2023-02-23T21:27:30.388Z,4.95
2023-02-23T21:30:31.922Z,4.90
2023-02-23T21:33:33.362Z,4.81
2023-02-23T21:36:35.573Z,4.80
2023-02-23T21:39:37.363Z,4.77
2023-02-23T21:42:40.742Z,4.72
2023-02-23T21:45:47.202Z,4.68
2023-02-23T21:48:49.226Z,4.64
2023-02-23T21:51:52.469Z,4.68
2023-02-23T21:54:55.245Z,4.56
2023-02-23T21:57:58.164Z,4.62
2023-02-23T22:00:59.663Z,4.70
2023-02-23T22:04:01.240Z,4.70
2023-02-23T22:07:02.768Z,4.61
2023-02-23T22:10:05.261Z,4.53
2023-02-23T22:13:06.828Z,4.60
2023-02-23T22:16:08.699Z,4.67
2023-02-23T22:19:12.017Z,4.63
2023-02-23T22:22:13.498Z,4.44
2023-02-23T22:25:16.997Z,4.31
2023-02-23T22:28:18.476Z,4.28
2023-02-23T22:31:20.508Z,4.22
2023-02-23T22:34:22.634Z,4.18
2023-02-23T22:37:32.006Z,4.07
2023-02-23T22:40:34.934Z,4.08
2023-02-23T22:43:37.771Z,4.13
2023-02-23T22:46:41.242Z,4.08
2023-02-23T22:49:42.671Z,4.18
2023-02-23T22:52:44.223Z,4.19
2023-02-23T22:55:47.102Z,4.11
2023-02-23T22:58:52.086Z,3.94
2023-02-23T23:01:56.309Z,3.91
2023-02-23T23:04:58.538Z,3.74
2023-02-23T23:08:00.127Z,3.59
2023-02-23T23:11:09.864Z,3.72
2023-02-23T23:14:12.221Z,3.80
2023-02-23T23:17:15.062Z,3.95
2023-02-23T23:20:25.588Z,3.96
2023-02-23T23:23:27.201Z,3.91
2023-02-23T23:26:29.558Z,3.88
2023-02-23T23:29:31.104Z,3.90
2023-02-23T23:32:33.474Z,3.90
2023-02-23T23:35:34.974Z,3.84
2023-02-23T23:38:38.459Z,3.82
2023-02-23T23:41:40.344Z,3.73
2023-02-23T23:44:42.052Z,3.67
2023-02-23T23:47:45.019Z,3.67
2023-02-23T23:50:47.303Z,3.70
2023-02-23T23:53:51.662Z,3.64
2023-02-23T23:56:54.097Z,3.57
2023-02-23T23:59:56.279Z,3.66
